createdAt,value
2022-08-03T00:01:36.635Z,53.39
2022-08-03T00:04:04.015Z,53.37
2022-08-03T00:06:36.507Z,53.23
2022-08-03T00:09:05.673Z,52.99
2022-08-03T00:11:32.585Z,53.01
2022-08-03T00:13:59.460Z,52.85
2022-08-03T00:16:26.530Z,52.97
2022-08-03T00:18:53.335Z,53.24
2022-08-03T00:21:20.148Z,53.71
2022-08-03T00:23:51.632Z,53.99
2022-08-03T00:26:19.896Z,54.00
2022-08-03T00:28:46.703Z,54.19
2022-08-03T00:31:13.877Z,54.34
2022-08-03T00:33:58.973Z,54.38
2022-08-03T00:36:27.223Z,54.39
2022-08-03T00:38:54.326Z,54.19
2022-08-03T00:41:21.276Z,54.24
2022-08-03T00:43:48.166Z,54.24
2022-08-03T00:46:20.581Z,54.03
2022-08-03T00:48:51.796Z,53.89
2022-08-03T00:51:19.185Z,53.81
2022-08-03T00:53:46.210Z,54.27
2022-08-03T00:56:13.931Z,54.41
2022-08-03T00:58:40.775Z,54.56
2022-08-03T01:01:07.662Z,54.44
2022-08-03T01:03:34.620Z,54.58
2022-08-03T01:06:13.033Z,54.37
2022-08-03T01:08:47.338Z,54.28
2022-08-03T01:11:34.929Z,54.27
2022-08-03T01:14:19.259Z,54.56
2022-08-03T01:17:06.299Z,54.64
2022-08-03T01:19:45.557Z,54.70
2022-08-03T01:22:30.598Z,54.89
2022-08-03T01:25:03.251Z,55.33
2022-08-03T01:27:41.287Z,55.66
2022-08-03T01:30:09.201Z,55.90
2022-08-03T01:33:00.339Z,56.41
2022-08-03T01:35:32.810Z,56.40
2022-08-03T01:38:05.858Z,56.49
2022-08-03T01:40:34.525Z,56.55
2022-08-03T01:43:03.643Z,57.19
2022-08-03T01:45:34.256Z,57.63
2022-08-03T01:48:01.999Z,58.20
2022-08-03T01:50:29.918Z,58.87
2022-08-03T01:52:57.467Z,58.55
2022-08-03T01:55:25.485Z,58.19
2022-08-03T01:58:05.179Z,57.92
2022-08-03T02:00:33.601Z,58.39
2022-08-03T02:03:01.053Z,58.63
2022-08-03T02:05:29.589Z,58.96
2022-08-03T02:07:56.937Z,59.08
2022-08-03T02:10:35.631Z,58.96
2022-08-03T02:13:05.318Z,58.82
2022-08-03T02:15:32.516Z,58.34
2022-08-03T02:18:00.393Z,58.31
2022-08-03T02:20:27.533Z,58.41
2022-08-03T02:22:54.692Z,58.13
2022-08-03T02:25:21.555Z,58.33
2022-08-03T02:27:55.462Z,58.49
2022-08-03T02:30:24.430Z,58.79
2022-08-03T02:32:55.617Z,58.85
2022-08-03T02:35:24.486Z,58.89
2022-08-03T02:37:53.414Z,59.21
2022-08-03T02:40:21.264Z,59.44
2022-08-03T02:42:50.378Z,59.94
2022-08-03T02:45:18.749Z,60.48
2022-08-03T02:47:54.036Z,61.05
2022-08-03T02:50:23.029Z,61.05
2022-08-03T02:52:51.347Z,60.77
2022-08-03T02:55:19.887Z,60.55
2022-08-03T02:57:47.572Z,60.29
2022-08-03T03:00:19.365Z,60.16
2022-08-03T03:02:55.959Z,60.17
2022-08-03T03:05:52.328Z,59.95
2022-08-03T03:08:18.575Z,59.53
2022-08-03T03:10:47.880Z,60.15
2022-08-03T03:13:16.219Z,60.25
2022-08-03T03:15:45.331Z,60.17
2022-08-03T03:18:13.063Z,60.61
2022-08-03T03:20:40.985Z,60.35
2022-08-03T03:23:09.291Z,59.80
2022-08-03T03:25:36.547Z,59.42
2022-08-03T03:28:06.394Z,59.66
2022-08-03T03:30:33.523Z,59.64
2022-08-03T03:33:00.759Z,59.50
2022-08-03T03:35:27.854Z,59.68
2022-08-03T03:37:55.142Z,59.74
2022-08-03T03:40:22.383Z,60.49
2022-08-03T03:42:49.968Z,60.79
2022-08-03T03:45:17.077Z,61.22
2022-08-03T03:47:43.993Z,61.18
2022-08-03T03:50:11.157Z,61.70
2022-08-03T03:52:37.990Z,62.03
2022-08-03T03:55:05.143Z,62.58
2022-08-03T03:57:31.955Z,62.54
2022-08-03T03:59:58.680Z,63.21
2022-08-03T04:02:25.657Z,63.07
2022-08-03T04:05:11.022Z,63.19
2022-08-03T04:08:18.408Z,63.39
2022-08-03T04:11:00.748Z,63.21
2022-08-03T04:13:33.779Z,62.80
2022-08-03T04:16:01.312Z,62.34
2022-08-03T04:18:29.879Z,61.87
2022-08-03T04:20:59.374Z,61.71
2022-08-03T04:23:27.785Z,61.99
2022-08-03T04:25:56.478Z,61.65
2022-08-03T04:28:30.425Z,61.65
2022-08-03T04:30:59.773Z,61.58
2022-08-03T04:33:29.369Z,61.12
2022-08-03T04:36:02.222Z,60.92
2022-08-03T04:38:31.778Z,61.32
2022-08-03T04:40:59.597Z,61.17
2022-08-03T04:43:27.823Z,61.34
2022-08-03T04:45:55.076Z,61.41
2022-08-03T04:48:21.930Z,61.60
2022-08-03T04:50:49.016Z,62.29
2022-08-03T04:53:16.625Z,62.75
2022-08-03T04:55:43.641Z,63.00
2022-08-03T04:58:10.683Z,62.63
2022-08-03T05:00:37.621Z,62.66
2022-08-03T05:03:04.512Z,62.47
2022-08-03T05:05:50.291Z,62.20
2022-08-03T05:08:20.341Z,62.40
2022-08-03T05:10:47.873Z,62.84
2022-08-03T05:13:14.763Z,62.92
2022-08-03T05:15:43.138Z,62.24
2022-08-03T05:18:13.971Z,62.62
2022-08-03T05:20:41.630Z,62.87
2022-08-03T05:23:08.565Z,62.97
2022-08-03T05:25:35.546Z,62.54
2022-08-03T05:28:02.309Z,61.95
2022-08-03T05:30:34.180Z,61.66
2022-08-03T05:33:03.063Z,61.07
2022-08-03T05:35:57.751Z,60.76
2022-08-03T05:38:24.248Z,60.39
2022-08-03T05:40:57.579Z,59.54
2022-08-03T05:43:43.479Z,59.15
2022-08-03T05:46:12.834Z,58.86
2022-08-03T05:48:40.216Z,59.14
2022-08-03T05:51:07.965Z,59.27
2022-08-03T05:53:35.206Z,59.32
2022-08-03T05:56:03.455Z,59.16
2022-08-03T05:58:42.228Z,58.42
2022-08-03T06:01:09.164Z,58.25
2022-08-03T06:03:36.135Z,58.17
2022-08-03T06:06:02.981Z,57.44
2022-08-03T06:08:29.939Z,56.99
2022-08-03T06:10:56.829Z,56.38
2022-08-03T06:13:23.713Z,56.11
2022-08-03T06:15:50.627Z,55.78
2022-08-03T06:18:17.513Z,55.70
2022-08-03T06:20:44.288Z,55.41
2022-08-03T06:23:16.151Z,55.24
2022-08-03T06:25:44.914Z,54.43
2022-08-03T06:28:42.507Z,54.13
2022-08-03T06:31:01.283Z,53.49
2022-08-03T06:34:30.489Z,53.11
2022-08-03T06:36:15.293Z,52.56
2022-08-03T06:38:42.206Z,52.07
2022-08-03T06:41:09.150Z,51.60
2022-08-03T06:44:02.594Z,51.37
2022-08-03T06:46:24.551Z,50.98
2022-08-03T06:48:52.963Z,50.62
2022-08-03T06:51:19.875Z,49.59
2022-08-03T06:53:46.872Z,49.88
2022-08-03T06:56:13.834Z,49.50
2022-08-03T06:58:40.769Z,49.06
2022-08-03T07:01:07.770Z,49.05
2022-08-03T07:03:34.817Z,49.24
2022-08-03T07:06:02.502Z,48.40
2022-08-03T07:08:33.121Z,48.82
2022-08-03T07:11:01.321Z,49.35
2022-08-03T07:13:28.239Z,49.47
2022-08-03T07:15:56.328Z,48.63
2022-08-03T07:18:29.222Z,48.60
2022-08-03T07:20:57.555Z,49.43
2022-08-03T07:23:25.759Z,49.30
2022-08-03T07:25:52.838Z,48.43
2022-08-03T07:28:20.164Z,47.63
2022-08-03T07:30:47.200Z,48.27
2022-08-03T07:33:15.400Z,47.92
2022-08-03T07:35:43.258Z,46.96
2022-08-03T07:38:13.331Z,47.28
2022-08-03T07:40:45.774Z,46.68
2022-08-03T07:43:13.248Z,46.31
2022-08-03T07:45:40.250Z,45.74
2022-08-03T07:48:11.770Z,46.35
2022-08-03T07:50:39.662Z,44.85
2022-08-03T07:53:06.514Z,45.28
2022-08-03T07:55:33.498Z,45.05
2022-08-03T07:58:05.437Z,44.70
2022-08-03T08:00:32.454Z,44.16
2022-08-03T08:02:59.434Z,43.53
2022-08-03T08:05:26.464Z,43.96
2022-08-03T08:07:53.317Z,43.78
2022-08-03T08:10:20.458Z,43.53
2022-08-03T08:12:47.521Z,42.85
2022-08-03T08:15:14.664Z,42.31
2022-08-03T08:17:46.124Z,41.97
2022-08-03T08:20:16.221Z,41.57
2022-08-03T08:22:49.862Z,39.88
2022-08-03T08:25:19.452Z,40.13
2022-08-03T08:28:22.436Z,40.43
2022-08-03T08:30:37.258Z,39.98
2022-08-03T08:33:04.234Z,40.08
2022-08-03T08:35:31.205Z,39.86
2022-08-03T08:38:00.080Z,38.96
2022-08-03T08:40:32.850Z,38.82
2022-08-03T08:42:59.763Z,38.69
2022-08-03T08:45:26.728Z,38.69
2022-08-03T08:47:59.754Z,37.65
2022-08-03T08:50:29.821Z,37.60
2022-08-03T08:52:57.039Z,37.17
2022-08-03T08:55:25.385Z,35.51
2022-08-03T08:58:01.921Z,35.22
2022-08-03T09:00:30.993Z,35.80
2022-08-03T09:02:58.001Z,36.34
2022-08-03T09:05:41.580Z,36.47
2022-08-03T09:08:11.794Z,34.95
2022-08-03T09:10:38.707Z,33.32
2022-08-03T09:13:05.780Z,34.49
2022-08-03T09:15:33.410Z,33.84
2022-08-03T09:18:01.462Z,34.23
2022-08-03T09:20:33.177Z,33.59
2022-08-03T09:23:06.080Z,33.24
2022-08-03T09:25:46.210Z,32.86
2022-08-03T09:28:52.580Z,32.16
2022-08-03T09:31:02.126Z,31.90
2022-08-03T09:33:36.239Z,31.26
2022-08-03T09:36:03.343Z,31.19
2022-08-03T09:38:30.204Z,30.49
2022-08-03T09:41:00.304Z,30.25
2022-08-03T09:43:28.254Z,29.92
2022-08-03T09:46:04.935Z,29.75
2022-08-03T09:48:32.814Z,30.02
2022-08-03T09:51:13.100Z,30.36
2022-08-03T09:53:58.713Z,29.69
2022-08-03T09:56:47.140Z,29.31
2022-08-03T09:59:23.083Z,29.32
2022-08-03T10:01:49.801Z,28.48
2022-08-03T10:04:19.911Z,29.13
2022-08-03T10:07:01.420Z,29.17
2022-08-03T10:09:28.254Z,29.00
2022-08-03T10:11:55.356Z,29.12
2022-08-03T10:14:23.558Z,29.03
2022-08-03T10:16:50.632Z,28.37
2022-08-03T10:19:17.593Z,26.95
2022-08-03T10:21:53.812Z,27.72
2022-08-03T10:24:24.452Z,27.15
2022-08-03T10:26:51.801Z,27.60
2022-08-03T10:29:21.674Z,28.31
2022-08-03T10:31:57.625Z,28.56
2022-08-03T10:34:30.911Z,28.41
2022-08-03T10:36:59.926Z,27.77
2022-08-03T10:39:28.934Z,27.98
2022-08-03T10:41:58.894Z,27.35
2022-08-03T10:44:33.249Z,27.31
2022-08-03T10:47:00.927Z,27.11
2022-08-03T10:49:35.262Z,26.49
2022-08-03T10:52:11.387Z,25.36
2022-08-03T10:55:07.693Z,25.75
2022-08-03T10:57:44.015Z,25.96
2022-08-03T11:00:22.811Z,25.85
2022-08-03T11:03:09.341Z,25.68
2022-08-03T11:05:37.891Z,25.57
2022-08-03T11:08:23.929Z,25.68
2022-08-03T11:10:51.942Z,24.29
2022-08-03T11:13:19.947Z,23.65
2022-08-03T11:15:47.924Z,24.02
2022-08-03T11:18:15.249Z,23.89
2022-08-03T11:21:00.029Z,22.77
2022-08-03T11:24:05.046Z,23.43
2022-08-03T11:26:33.676Z,22.11
2022-08-03T11:29:39.116Z,22.58
2022-08-03T11:32:05.951Z,22.78
2022-08-03T11:34:34.133Z,23.46
2022-08-03T11:37:27.269Z,23.14
2022-08-03T11:39:57.349Z,22.53
2022-08-03T11:42:45.348Z,22.01
2022-08-03T11:45:12.940Z,21.60
2022-08-03T11:47:50.988Z,22.06
2022-08-03T11:50:19.486Z,22.16
2022-08-03T11:52:46.329Z,21.83
2022-08-03T11:55:13.942Z,21.65
2022-08-03T11:59:10.935Z,21.44
2022-08-03T12:00:31.966Z,22.65
2022-08-03T12:03:00.541Z,22.56
2022-08-03T12:05:53.753Z,23.05
2022-08-03T12:08:32.324Z,25.01
2022-08-03T12:11:00.927Z,25.18
2022-08-03T12:14:36.785Z,26.71
2022-08-03T12:16:24.295Z,27.09
2022-08-03T12:19:07.115Z,27.96
2022-08-03T12:21:34.122Z,28.96
2022-08-03T12:24:02.667Z,28.97
2022-08-03T12:26:30.488Z,29.08
2022-08-03T12:28:57.746Z,29.45
2022-08-03T12:31:25.256Z,28.72
2022-08-03T12:34:10.214Z,29.15
2022-08-03T12:36:37.633Z,29.99
2022-08-03T12:39:06.128Z,29.01
2022-08-03T12:41:37.008Z,29.25
2022-08-03T12:44:04.678Z,29.55
2022-08-03T12:46:46.982Z,29.74
2022-08-03T12:49:15.771Z,29.96
2022-08-03T12:52:07.348Z,30.24
2022-08-03T12:54:36.181Z,30.10
2022-08-03T12:57:10.901Z,30.19
2022-08-03T12:59:53.460Z,30.24
2022-08-03T13:02:24.587Z,30.37
2022-08-03T13:04:52.559Z,31.35
2022-08-03T13:07:20.107Z,30.50
2022-08-03T13:09:51.254Z,30.75
2022-08-03T13:12:19.366Z,31.08
2022-08-03T13:14:49.186Z,30.37
2022-08-03T13:17:19.161Z,31.38
2022-08-03T13:19:46.721Z,31.55
2022-08-03T13:22:17.501Z,31.41
2022-08-03T13:24:45.381Z,30.65
2022-08-03T13:28:01.698Z,30.60
2022-08-03T13:29:59.900Z,32.05
2022-08-03T13:32:26.782Z,31.16
2022-08-03T13:34:53.714Z,31.89
2022-08-03T13:37:20.757Z,31.27
2022-08-03T13:39:58.675Z,31.79
2022-08-03T13:42:27.343Z,31.85
2022-08-03T13:44:54.208Z,32.65
2022-08-03T13:47:21.493Z,32.77
2022-08-03T13:50:00.385Z,33.60
2022-08-03T13:52:30.056Z,33.93
2022-08-03T13:54:56.936Z,33.46
2022-08-03T13:58:11.403Z,33.20
2022-08-03T14:00:11.144Z,32.98
2022-08-03T14:02:38.127Z,32.21
2022-08-03T14:05:05.278Z,33.32
2022-08-03T14:07:32.104Z,32.68
2022-08-03T14:09:59.103Z,31.99
2022-08-03T14:12:26.161Z,33.12
2022-08-03T14:14:52.995Z,32.10
2022-08-03T14:17:23.281Z,33.45
2022-08-03T14:19:53.379Z,33.46
2022-08-03T14:22:21.228Z,34.30
2022-08-03T14:24:49.377Z,33.15
2022-08-03T14:27:16.614Z,34.33
2022-08-03T14:29:43.645Z,34.98
2022-08-03T14:32:13.276Z,36.55
2022-08-03T14:34:40.625Z,37.11
2022-08-03T14:37:07.652Z,36.62
2022-08-03T14:42:21.923Z,36.38
2022-08-03T14:44:48.899Z,37.08
2022-08-03T14:47:15.865Z,36.46
2022-08-03T14:50:38.544Z,35.18
2022-08-03T14:52:30.326Z,35.19
2022-08-03T14:54:57.527Z,34.82
2022-08-03T14:57:24.376Z,35.14
2022-08-03T14:59:55.516Z,34.98
2022-08-03T15:02:24.646Z,35.96
2022-08-03T15:04:51.822Z,36.25
2022-08-03T15:07:19.198Z,36.88
2022-08-03T15:09:46.241Z,36.97
2022-08-03T15:12:13.263Z,36.59
2022-08-03T15:14:40.170Z,36.56
2022-08-03T15:17:07.196Z,36.94
2022-08-03T15:20:00.984Z,36.54
2022-08-03T15:22:25.427Z,37.33
2022-08-03T15:25:02.184Z,36.67
2022-08-03T15:27:28.947Z,36.73
2022-08-03T15:30:05.711Z,37.39
2022-08-03T15:32:37.082Z,36.82
2022-08-03T15:35:04.245Z,36.25
2022-08-03T15:37:31.051Z,36.73
2022-08-03T15:39:58.168Z,36.99
2022-08-03T15:42:27.503Z,37.23
2022-08-03T15:44:54.697Z,37.71
2022-08-03T15:47:21.947Z,36.92
2022-08-03T15:49:48.978Z,36.90
2022-08-03T15:52:15.782Z,37.24
2022-08-03T15:54:42.681Z,38.47
2022-08-03T15:57:09.669Z,38.83
2022-08-03T15:59:36.477Z,39.56
2022-08-03T16:02:03.442Z,40.07
2022-08-03T16:04:30.399Z,40.62
2022-08-03T16:06:57.254Z,40.99
2022-08-03T16:09:42.799Z,41.00
2022-08-03T16:12:15.563Z,40.91
2022-08-03T16:14:53.463Z,40.58
2022-08-03T16:17:21.348Z,40.31
2022-08-03T16:19:48.499Z,40.06
2022-08-03T16:22:19.486Z,39.90
2022-08-03T16:24:46.986Z,39.67
2022-08-03T16:27:17.668Z,39.63
2022-08-03T16:30:00.691Z,39.39
2022-08-03T16:32:27.451Z,39.78
2022-08-03T16:34:54.243Z,39.35
2022-08-03T16:37:38.233Z,39.58
2022-08-03T16:40:09.269Z,40.46
2022-08-03T16:42:45.922Z,40.33
2022-08-03T16:45:12.841Z,40.04
2022-08-03T16:47:39.952Z,39.97
2022-08-03T16:50:14.294Z,39.30
2022-08-03T16:52:47.091Z,39.20
2022-08-03T16:55:16.022Z,39.06
2022-08-03T16:58:03.094Z,38.38
2022-08-03T17:00:34.207Z,38.38
2022-08-03T17:03:19.135Z,38.06
2022-08-03T17:05:51.201Z,37.90
2022-08-03T17:08:27.002Z,35.45
2022-08-03T17:10:54.557Z,34.61
2022-08-03T17:13:22.790Z,33.02
2022-08-03T17:15:57.768Z,31.82
2022-08-03T17:18:29.941Z,31.30
2022-08-03T17:20:58.228Z,30.92
2022-08-03T17:23:54.796Z,30.63
2022-08-03T17:26:23.292Z,30.26
2022-08-03T17:28:59.900Z,30.11
2022-08-03T17:31:31.685Z,29.89
2022-08-03T17:34:01.024Z,30.07
2022-08-03T17:36:47.595Z,30.32
2022-08-03T17:39:15.874Z,30.75
2022-08-03T17:41:50.028Z,31.21
2022-08-03T17:44:30.131Z,31.96
2022-08-03T17:47:07.432Z,32.52
2022-08-03T17:49:39.811Z,33.25
2022-08-03T17:52:21.516Z,33.43
2022-08-03T17:55:56.319Z,33.53
2022-08-03T17:58:08.827Z,33.89
2022-08-03T18:00:59.642Z,34.05
2022-08-03T18:03:57.801Z,34.04
2022-08-03T18:06:27.945Z,34.40
2022-08-03T18:08:59.996Z,34.80
2022-08-03T18:11:35.789Z,35.14
2022-08-03T18:14:24.582Z,35.96
2022-08-03T18:16:56.523Z,37.56
2022-08-03T18:20:02.660Z,39.04
2022-08-03T18:22:12.372Z,40.11
2022-08-03T18:24:41.459Z,41.43
2022-08-03T18:27:10.772Z,42.00
2022-08-03T18:29:37.581Z,42.74
2022-08-03T18:32:13.349Z,43.20
2022-08-03T18:34:53.489Z,43.35
2022-08-03T18:37:24.961Z,44.28
2022-08-03T18:39:54.899Z,45.02
2022-08-03T18:42:26.169Z,45.21
2022-08-03T18:44:56.539Z,45.53
2022-08-03T18:47:50.531Z,45.90
2022-08-03T18:50:28.561Z,46.25
2022-08-03T18:53:16.372Z,46.36
2022-08-03T18:56:21.817Z,46.81
2022-08-03T18:59:05.295Z,46.84
2022-08-03T19:02:01.391Z,47.39
2022-08-03T19:04:35.179Z,48.10
2022-08-03T19:07:08.156Z,48.01
2022-08-03T19:09:45.820Z,48.33
2022-08-03T19:12:30.996Z,48.38
2022-08-03T19:15:12.496Z,48.98
2022-08-03T19:17:53.485Z,49.69
2022-08-03T19:20:24.997Z,50.81
2022-08-03T19:22:52.869Z,51.55
2022-08-03T19:25:19.743Z,52.21
2022-08-03T19:28:03.314Z,52.00
2022-08-03T19:30:39.091Z,51.86
2022-08-03T19:33:08.340Z,52.11
2022-08-03T19:35:51.519Z,52.24
2022-08-03T19:38:28.780Z,52.41
2022-08-03T19:41:01.584Z,52.25
2022-08-03T19:43:52.960Z,52.80
2022-08-03T19:46:21.938Z,52.59
2022-08-03T19:49:01.335Z,52.79
2022-08-03T19:52:01.248Z,52.98
2022-08-03T19:54:25.304Z,53.25
2022-08-03T19:56:57.920Z,53.50
2022-08-03T19:59:26.496Z,53.60
2022-08-03T20:01:53.835Z,54.14
2022-08-03T20:04:21.625Z,53.68
2022-08-03T20:06:49.825Z,53.71
2022-08-03T20:09:17.905Z,54.02
2022-08-03T20:11:45.211Z,53.81
2022-08-03T20:14:20.548Z,54.10
2022-08-03T20:16:53.187Z,54.26
2022-08-03T20:19:20.118Z,54.79
2022-08-03T20:21:47.876Z,55.07
2022-08-03T20:24:24.712Z,56.06
2022-08-03T20:26:56.606Z,55.70
2022-08-03T20:30:07.155Z,55.60
2022-08-03T20:32:34.486Z,55.62
2022-08-03T20:35:01.398Z,55.87
2022-08-03T20:37:28.409Z,55.35
2022-08-03T20:39:57.412Z,55.52
2022-08-03T20:42:24.858Z,55.65
2022-08-03T20:45:04.392Z,55.98
2022-08-03T20:47:50.250Z,56.00
2022-08-03T20:50:18.432Z,55.61
2022-08-03T20:52:49.820Z,55.55
2022-08-03T20:55:18.753Z,55.67
2022-08-03T20:57:49.176Z,55.54
2022-08-03T21:00:22.145Z,55.63
2022-08-03T21:02:49.242Z,55.34
2022-08-03T21:05:16.177Z,55.89
2022-08-03T21:08:06.144Z,55.83
2022-08-03T21:10:35.808Z,55.82
2022-08-03T21:13:19.048Z,55.59
2022-08-03T21:16:06.823Z,56.04
2022-08-03T21:18:42.750Z,56.70
2022-08-03T21:21:10.342Z,56.81
2022-08-03T21:23:47.948Z,56.85
2022-08-03T21:26:16.844Z,56.71
2022-08-03T21:28:45.365Z,56.70
2022-08-03T21:31:13.277Z,56.89
2022-08-03T21:33:40.857Z,56.86
2022-08-03T21:36:11.244Z,57.14
2022-08-03T21:38:39.731Z,57.28
2022-08-03T21:41:07.995Z,57.30
2022-08-03T21:43:35.048Z,57.06
2022-08-03T21:46:02.997Z,57.24
2022-08-03T21:48:33.038Z,57.58
2022-08-03T21:51:00.459Z,58.08
2022-08-03T21:54:04.204Z,58.29
2022-08-03T21:56:18.425Z,58.61
2022-08-03T21:58:55.301Z,58.68
2022-08-03T22:01:23.921Z,58.47
2022-08-03T22:03:54.987Z,58.55
2022-08-03T22:06:22.091Z,58.82
2022-08-03T22:08:49.891Z,58.98
2022-08-03T22:11:16.705Z,59.09
2022-08-03T22:13:44.673Z,59.10
2022-08-03T22:16:12.062Z,59.06
2022-08-03T22:18:39.543Z,58.85
2022-08-03T22:21:06.638Z,58.98
2022-08-03T22:23:39.070Z,59.55
2022-08-03T22:26:07.027Z,59.36
2022-08-03T22:28:34.119Z,59.07
2022-08-03T22:31:01.054Z,58.68
2022-08-03T22:33:48.273Z,58.60
2022-08-03T22:36:18.255Z,58.63
2022-08-03T22:38:47.042Z,58.94
2022-08-03T22:41:16.768Z,59.53
2022-08-03T22:43:43.614Z,60.13
2022-08-03T22:46:14.517Z,60.14
2022-08-03T22:48:44.402Z,60.06
2022-08-03T22:51:11.276Z,59.97
2022-08-03T22:53:38.932Z,60.03
2022-08-03T22:56:06.659Z,60.24
2022-08-03T22:58:33.511Z,60.41
2022-08-03T23:01:07.351Z,60.82
2022-08-03T23:03:59.091Z,60.82
2022-08-03T23:06:24.007Z,61.25
2022-08-03T23:08:51.131Z,61.36
2022-08-03T23:11:18.397Z,61.44
2022-08-03T23:13:46.823Z,61.30
2022-08-03T23:16:14.507Z,60.96
2022-08-03T23:18:42.608Z,60.61
2022-08-03T23:21:11.571Z,60.39
2022-08-03T23:23:44.471Z,60.46
2022-08-03T23:26:12.519Z,60.52
2022-08-03T23:28:39.998Z,61.27
2022-08-03T23:31:07.897Z,62.09
2022-08-03T23:33:37.224Z,62.89
2022-08-03T23:36:27.931Z,62.97
2022-08-03T23:38:53.651Z,63.37
2022-08-03T23:41:20.609Z,63.44
2022-08-03T23:43:51.826Z,63.16
2022-08-03T23:46:21.321Z,63.33
2022-08-03T23:48:48.170Z,63.49
2022-08-03T23:51:31.807Z,63.67
2022-08-03T23:54:21.722Z,63.51
2022-08-03T23:56:54.407Z,63.38
2022-08-03T23:59:27.935Z,63.63
